Time;durP1;ratioP1;P1;durP2;ratioP2;P2;SDS_P1;SDS_P2;PMS_P1;PMS_P2;Temp;Humidity;BMP_temperature;BMP_pressure;BME280_temperature;BME280_humidity;BME280_pressure;Samples;Min_cycle;Max_cycle;Signal;HPM_P1;HPM_P2
2020/12/19 00:00:47;;;;;;;37.57;21.47;;;;;;;2.75;76.01;101404.88;1684727;82;21143;-90
2020/12/19 00:03:18;;;;;;;39.07;23.90;;;;;;;2.80;75.97;101411.98;1677588;83;21270;-92
2020/12/19 00:05:50;;;;;;;39.20;23.00;;;;;;;2.75;75.98;101411.02;1689592;82;21220;-86
2020/12/19 00:08:22;;;;;;;47.77;26.37;;;;;;;2.74;75.95;101419.84;1732895;80;21157;-86
2020/12/19 00:10:53;;;;;;;35.53;22.97;;;;;;;2.69;75.97;101413.61;1715164;82;21188;-89
2020/12/19 00:13:23;;;;;;;37.00;22.73;;;;;;;2.68;75.99;101409.77;1706434;83;21136;-88
2020/12/19 00:15:53;;;;;;;36.80;23.37;;;;;;;2.73;75.81;101415.06;1709481;81;21200;-85
2020/12/19 00:18:21;;;;;;;40.00;24.57;;;;;;;2.82;75.54;101408.27;1670482;84;21192;-89
2020/12/19 00:20:48;;;;;;;37.43;23.83;;;;;;;2.45;75.44;101348.23;1709904;83;21195;-90
2020/12/19 00:23:16;;;;;;;40.10;23.10;;;;;;;2.80;75.61;101414.13;1725610;81;21200;-88
2020/12/19 00:25:43;;;;;;;46.33;24.93;;;;;;;2.79;75.76;101411.59;1710711;82;21212;-84
2020/12/19 00:28:11;;;;;;;38.17;24.17;;;;;;;2.77;75.77;101408.23;1706942;83;21172;-90
2020/12/19 00:30:41;;;;;;;36.20;21.20;;;;;;;2.73;75.80;101413.75;1716457;82;21188;-87
2020/12/19 00:33:09;;;;;;;36.27;22.00;;;;;;;2.78;75.69;101409.45;1721509;81;21212;-87
2020/12/19 00:37:14;;;;;;;39.07;24.60;;;;;;;3.00;75.20;101410.53;1780362;75;23581;-93
2020/12/19 00:40:23;;;;;;;35.70;21.97;;;;;;;2.91;75.12;101408.92;1740946;80;21297;-92
2020/12/19 00:43:22;;;;;;;39.30;22.83;;;;;;;2.84;75.40;101415.58;1723855;81;21238;-91
2020/12/19 00:46:11;;;;;;;43.80;25.03;;;;;;;2.79;75.61;101412.46;1750543;80;21158;-92
2020/12/19 00:49:04;;;;;;;37.08;22.87;;;;;;;2.75;75.70;101406.20;1733427;80;21407;-90
2020/12/19 00:51:38;;;;;;;35.40;21.77;;;;;;;2.69;75.69;101413.61;1757516;80;21321;-93
2020/12/19 00:54:20;;;;;;;34.27;21.80;;;;;;;2.71;75.56;101402.94;1761014;80;21138;-90
2020/12/19 00:57:34;;;;;;;39.83;24.43;;;;;;;2.81;75.30;101404.45;1735600;81;21132;-92
2020/12/19 01:00:24;;;;;;;37.77;23.50;;;;;;;2.73;75.39;101407.62;1727542;81;21187;-91
2020/12/19 01:03:53;;;;;;;31.30;20.87;;;;;;;2.62;75.74;101407.55;1760436;80;21254;-78
2020/12/19 01:07:31;;;;;;;31.50;20.57;;;;;;;2.58;76.02;101418.80;1683698;80;21170;-93
2020/12/19 01:10:49;;;;;;;34.20;21.37;;;;;;;2.48;76.31;101410.70;1714966;81;21105;-85
2020/12/19 01:14:15;;;;;;;31.93;20.82;;;;;;;2.60;76.23;101406.82;1697537;80;21162;-92
2020/12/19 01:17:22;;;;;;;33.67;22.40;;;;;;;2.78;75.80;101414.72;1664267;81;21177;-90
2020/12/19 01:19:50;;;;;;;31.77;21.83;;;;;;;2.77;75.74;101409.11;1681103;83;21980;-86
2020/12/19 01:22:19;;;;;;;32.00;19.47;;;;;;;2.72;75.91;101410.73;1681606;83;21208;-87
2020/12/19 01:24:47;;;;;;;33.27;19.53;;;;;;;2.70;75.91;101411.33;1669083;83;22392;-88
2020/12/19 01:27:18;;;;;;;33.80;20.37;;;;;;;2.66;75.84;101417.77;1648760;83;21324;-87
2020/12/19 01:29:45;;;;;;;34.17;20.97;;;;;;;2.62;75.87;101407.55;1717016;80;21223;-88
2020/12/19 01:32:14;;;;;;;33.00;20.77;;;;;;;2.73;75.72;101414.20;1723493;82;21203;-86
2020/12/19 01:34:42;;;;;;;30.87;19.87;;;;;;;2.76;75.63;101411.36;1705897;81;21383;-87
2020/12/19 01:37:10;;;;;;;41.17;23.67;;;;;;;2.69;75.75;101407.48;1745944;79;21633;-87
2020/12/19 01:39:37;;;;;;;32.57;20.57;;;;;;;2.64;75.91;101414.41;1774047;80;21526;-87
2020/12/19 01:42:07;;;;;;;27.63;19.23;;;;;;;2.63;76.02;101423.73;1774003;79;21253;-86
2020/12/19 01:44:35;;;;;;;30.83;20.17;;;;;;;2.62;76.07;101427.30;1752325;79;21179;-87
2020/12/19 01:47:03;;;;;;;31.93;20.63;;;;;;;2.64;75.97;101428.05;1769915;79;21203;-89
2020/12/19 01:49:31;;;;;;;37.27;23.63;;;;;;;2.74;75.74;101423.80;1745390;80;21171;-89
2020/12/19 01:52:03;;;;;;;31.00;20.63;;;;;;;2.74;75.68;101411.95;1768666;79;21214;-87
2020/12/19 01:54:32;;;;;;;38.77;21.13;;;;;;;2.69;75.85;101413.61;1729603;80;21175;-87
2020/12/19 01:57:00;;;;;;;26.37;18.50;;;;;;;2.66;75.93;101415.62;1757892;79;21174;-89
2020/12/19 01:59:28;;;;;;;24.23;17.17;;;;;;;2.65;76.01;101413.44;1765214;79;21245;-89
2020/12/19 02:01:58;;;;;;;30.40;18.83;;;;;;;2.63;75.85;101420.61;1760658;79;21195;-89
2020/12/19 02:04:26;;;;;;;32.37;21.10;;;;;;;2.65;75.81;101421.82;1748784;80;21477;-86
2020/12/19 02:06:56;;;;;;;27.37;18.27;;;;;;;2.75;75.52;101415.41;1737411;79;21111;-86
2020/12/19 02:09:29;;;;;;;28.30;19.13;;;;;;;2.72;75.59;101419.12;1740410;81;21202;-85
2020/12/19 02:12:04;;;;;;;34.30;20.53;;;;;;;2.66;75.86;101411.67;1802462;77;22962;-82
2020/12/19 02:14:31;;;;;;;28.80;20.13;;;;;;;2.57;76.12;101419.73;1793696;78;21323;-83
2020/12/19 02:17:04;;;;;;;27.10;18.83;;;;;;;2.57;76.18;101413.64;1785320;78;21179;-83
2020/12/19 02:19:33;;;;;;;25.60;16.80;;;;;;;2.56;76.22;101419.36;1762533;80;21341;-85
2020/12/19 02:22:01;;;;;;;33.10;17.23;;;;;;;2.60;76.08;101419.53;1742803;80;21381;-84
2020/12/19 02:24:28;;;;;;;28.63;18.13;;;;;;;2.74;75.79;101419.84;1758879;80;21611;-83
2020/12/19 02:26:57;;;;;;;25.77;17.93;;;;;;;2.77;75.72;101414.82;1759622;80;21620;-83
2020/12/19 02:29:27;;;;;;;24.13;17.60;;;;;;;2.72;75.89;101412.53;1764488;80;21148;-83
2020/12/19 02:31:58;;;;;;;24.33;17.60;;;;;;;2.69;75.98;101410.11;1788746;80;21279;-87
2020/12/19 02:34:26;;;;;;;21.70;17.63;;;;;;;2.68;75.95;101417.66;1760343;80;21179;-87
2020/12/19 02:36:53;;;;;;;22.70;15.30;;;;;;;2.65;75.96;101413.44;1685579;79;21169;-87
2020/12/19 02:39:20;;;;;;;23.93;16.83;;;;;;;2.71;75.85;101411.70;1657136;85;21216;-86
2020/12/19 02:41:48;;;;;;;23.53;16.27;;;;;;;2.84;75.61;101415.58;1653855;85;21204;-88
2020/12/19 02:44:18;;;;;;;23.87;16.50;;;;;;;2.88;75.53;101416.20;1629691;86;21818;-86
2020/12/19 02:46:46;;;;;;;21.97;16.23;;;;;;;2.81;75.36;101409.72;1606665;88;21233;-89
2020/12/19 02:49:15;;;;;;;24.33;17.07;;;;;;;2.71;75.54;101413.47;1606055;88;21241;-87
2020/12/19 02:51:43;;;;;;;22.70;15.67;;;;;;;2.63;75.82;101416.66;1595657;88;21184;-88
2020/12/19 02:54:11;;;;;;;28.13;16.67;;;;;;;2.60;75.80;101422.16;1614566;88;21226;-88
2020/12/19 02:56:37;;;;;;;22.37;16.23;;;;;;;2.66;75.79;101420.88;1613709;88;21225;-88
2020/12/19 02:59:04;;;;;;;21.50;15.47;;;;;;;2.78;75.54;101423.93;1613428;88;21193;-89
2020/12/19 03:01:32;;;;;;;19.70;14.47;;;;;;;2.80;75.50;101421.20;1609187;88;21441;-90
2020/12/19 03:03:59;;;;;;;21.87;15.53;;;;;;;2.77;75.63;101420.95;1612264;88;21307;-86
2020/12/19 03:06:29;;;;;;;25.23;17.40;;;;;;;2.74;75.76;101419.84;1621158;84;21116;-86
2020/12/19 03:08:58;;;;;;;23.37;17.00;;;;;;;2.68;75.92;101417.66;1621188;87;21509;-87
2020/12/19 03:11:26;;;;;;;25.63;17.70;;;;;;;2.44;75.95;101386.88;1612840;87;21303;-88
2020/12/19 03:13:55;;;;;;;22.37;16.33;;;;;;;2.70;75.78;101410.49;1627973;87;21219;-87
2020/12/19 03:16:22;;;;;;;22.37;16.70;;;;;;;2.75;75.57;101416.28;1617054;87;21719;-87
2020/12/19 03:18:50;;;;;;;19.23;15.60;;;;;;;2.77;75.76;101413.05;1614750;87;21250;-85
2020/12/19 03:21:18;;;;;;;23.20;15.60;;;;;;;2.78;75.82;101409.94;1625389;87;21186;-88
2020/12/19 03:23:48;;;;;;;25.30;18.73;;;;;;;2.72;75.84;101406.78;1635060;87;21235;-86
2020/12/19 03:26:15;;;;;;;28.20;21.90;;;;;;;2.65;75.81;101412.13;1640017;86;21237;-89
2020/12/19 03:28:43;;;;;;;36.60;23.83;;;;;;;2.62;76.01;101421.58;1645867;82;21284;-87
2020/12/19 03:31:11;;;;;;;32.17;22.40;;;;;;;2.68;75.90;101425.56;1663659;82;21187;-87
2020/12/19 03:33:39;;;;;;;31.20;22.97;;;;;;;2.82;75.73;101419.29;1639336;87;21235;-86
2020/12/19 03:36:06;;;;;;;33.67;22.97;;;;;;;2.87;75.64;101419.31;1634306;85;21219;-86
2020/12/19 03:38:33;;;;;;;30.77;19.30;;;;;;;2.85;75.81;101425.17;1636002;86;21797;-85
2020/12/19 03:41:01;;;;;;;27.40;20.27;;;;;;;2.84;75.78;101419.53;1632788;87;21773;-95
2020/12/19 03:43:37;;;;;;;27.83;20.80;;;;;;;2.82;75.78;101425.38;1632318;84;21172;-94
2020/12/19 03:46:12;;;;;;;29.43;19.43;;;;;;;2.81;75.66;101420.25;1635200;83;21136;-94
2020/12/19 03:48:45;;;;;;;26.80;19.10;;;;;;;2.84;75.72;101421.33;1629844;87;21204;-92
2020/12/19 03:51:14;;;;;;;23.43;16.23;;;;;;;2.98;75.41;101424.30;1628413;86;21152;-88
2020/12/19 03:53:44;;;;;;;23.67;16.63;;;;;;;2.99;75.18;101425.47;1634216;87;21223;-87
2020/12/19 03:56:11;;;;;;;23.80;16.50;;;;;;;2.87;75.18;101418.00;1638502;87;21237;-88
2020/12/19 03:58:38;;;;;;;22.20;16.50;;;;;;;2.74;75.62;101419.84;1632799;86;21169;-86
2020/12/19 04:01:05;;;;;;;21.87;15.57;;;;;;;2.65;75.97;101423.14;1621673;87;21216;-87
2020/12/19 04:03:32;;;;;;;21.40;15.93;;;;;;;2.62;76.24;101424.66;1601532;87;21192;-88
2020/12/19 04:06:01;;;;;;;21.47;15.73;;;;;;;2.65;76.23;101425.77;1618814;83;21133;-86
2020/12/19 04:08:28;;;;;;;22.50;14.70;;;;;;;2.77;76.07;101423.59;1612653;87;21235;-86
2020/12/19 04:10:55;;;;;;;20.77;14.27;;;;;;;2.85;75.91;101429.61;1579856;88;21248;-87
2020/12/19 04:13:22;;;;;;;24.73;17.93;;;;;;;2.81;75.96;101421.58;1612063;87;21772;-86
2020/12/19 04:15:50;;;;;;;20.90;14.77;;;;;;;2.73;76.16;101419.47;1599358;88;21244;-87
2020/12/19 04:18:19;;;;;;;25.23;17.00;;;;;;;2.72;76.44;101416.48;1620054;87;21211;-88
2020/12/19 04:20:47;;;;;;;19.73;13.90;;;;;;;2.70;76.36;101426.29;1603093;85;21167;-87
2020/12/19 04:23:16;;;;;;;23.97;17.17;;;;;;;2.76;76.30;101416.63;1609249;85;21366;-88
2020/12/19 04:25:44;;;;;;;26.10;17.20;;;;;;;2.89;75.96;101426.63;1617280;86;21238;-86
2020/12/19 04:28:11;;;;;;;26.13;17.73;;;;;;;2.89;75.81;101421.84;1604248;88;21238;-87
2020/12/19 04:30:38;;;;;;;24.77;17.10;;;;;;;2.80;76.14;101427.29;1615940;87;21222;-84
2020/12/19 04:33:06;;;;;;;25.50;17.10;;;;;;;2.73;76.37;101424.73;1603363;88;21412;-88
2020/12/19 04:35:32;;;;;;;25.97;18.17;;;;;;;2.69;76.55;101426.77;1623581;85;21109;-88
2020/12/19 04:37:59;;;;;;;28.67;19.17;;;;;;;2.67;76.61;101427.33;1622682;87;21197;-85
2020/12/19 04:40:34;;;;;;;26.73;17.77;;;;;;;2.72;76.55;101426.53;1615211;87;21452;-87
2020/12/19 04:43:18;;;;;;;25.70;17.53;;;;;;;2.89;76.30;101423.16;1625427;87;21153;-88
2020/12/19 04:45:47;;;;;;;27.73;18.37;;;;;;;2.95;76.01;101424.02;1631453;87;21660;-87
2020/12/19 04:48:23;;;;;;;26.00;17.63;;;;;;;2.87;76.19;101428.53;1632306;87;21190;-87
2020/12/19 04:50:53;;;;;;;24.15;16.02;;;;;;;2.81;76.28;101420.25;1623452;87;21229;-88
2020/12/19 04:53:22;;;;;;;27.67;17.20;;;;;;;2.75;76.42;101422.86;1611508;87;21244;-85
2020/12/19 04:55:49;;;;;;;28.73;16.23;;;;;;;2.71;76.64;101422.69;1620360;87;21213;-88
2020/12/19 04:58:19;;;;;;;26.40;16.90;;;;;;;2.75;76.55;101423.31;1617361;87;21315;-88
2020/12/19 05:00:49;;;;;;;23.50;15.90;;;;;;;2.88;76.24;101419.70;1618913;83;21190;-84
2020/12/19 05:03:16;;;;;;;27.70;18.87;;;;;;;2.93;76.15;101415.40;1634362;85;21232;-88
2020/12/19 05:05:47;;;;;;;25.43;17.17;;;;;;;2.87;76.16;101416.69;1625018;86;21236;-89
2020/12/19 05:08:16;;;;;;;28.43;18.23;;;;;;;2.85;76.28;101414.64;1611859;87;21246;-86
2020/12/19 05:10:45;;;;;;;27.90;18.80;;;;;;;2.85;76.22;101411.17;1616422;87;21701;-85
2020/12/19 05:13:13;;;;;;;28.77;18.00;;;;;;;2.82;76.22;101409.59;1619752;87;21261;-86
2020/12/19 05:15:42;;;;;;;28.00;18.50;;;;;;;2.86;75.96;101412.84;1629388;87;21274;-86
2020/12/19 05:18:09;;;;;;;29.00;18.53;;;;;;;2.95;75.68;101416.61;1613161;87;21726;-87
2020/12/19 05:20:36;;;;;;;25.13;17.43;;;;;;;2.95;75.65;101420.07;1628216;87;21224;-85
2020/12/19 05:23:06;;;;;;;28.13;18.03;;;;;;;2.91;75.82;101424.72;1573427;87;21220;-89
2020/12/19 05:25:38;;;;;;;26.00;17.13;;;;;;;2.89;75.93;101422.68;1613159;87;21146;-89
2020/12/19 05:28:07;;;;;;;28.07;18.90;;;;;;;2.87;75.96;101423.75;1610492;87;21397;-86
2020/12/19 05:30:34;;;;;;;27.10;18.13;;;;;;;2.85;75.93;101426.49;1612677;87;21308;-84
2020/12/19 05:33:02;;;;;;;26.00;17.47;;;;;;;2.82;75.93;101420.12;1592365;87;21185;-93
2020/12/19 05:35:35;;;;;;;29.37;18.20;;;;;;;2.87;75.79;101421.95;1624111;86;21055;-92
2020/12/19 05:38:10;;;;;;;23.77;16.10;;;;;;;3.00;75.41;101423.70;1641030;85;21170;-92
2020/12/19 05:40:50;;;;;;;26.53;17.47;;;;;;;3.00;75.31;101423.22;1640132;84;21234;-94
2020/12/19 05:43:20;;;;;;;26.37;18.50;;;;;;;2.92;75.54;101429.53;1646452;84;21171;-91
2020/12/19 05:45:56;;;;;;;25.53;16.70;;;;;;;2.85;75.61;101433.08;1645359;85;21194;-90
2020/12/19 05:48:49;;;;;;;27.87;18.93;;;;;;;2.80;75.71;101440.94;1615871;87;21119;-88
2020/12/19 05:51:17;;;;;;;27.30;18.37;;;;;;;2.74;75.90;101446.17;1593689;87;21239;-88
2020/12/19 05:53:44;;;;;;;26.83;17.47;;;;;;;2.78;75.81;101446.31;1619666;87;21209;-90
2020/12/19 05:56:11;;;;;;;26.43;18.23;;;;;;;2.91;75.49;101451.05;1640336;87;21164;-86
2020/12/19 05:58:39;;;;;;;27.70;19.77;;;;;;;2.93;75.46;101453.58;1629350;87;21214;-87
2020/12/19 06:01:06;;;;;;;27.53;18.93;;;;;;;2.88;75.63;101464.47;1645589;85;21380;-85
2020/12/19 06:03:36;;;;;;;26.67;18.07;;;;;;;2.84;75.75;101462.98;1629304;86;21210;-85
2020/12/19 06:06:03;;;;;;;26.57;18.03;;;;;;;2.50;75.89;101413.23;1640946;84;21183;-87
2020/12/19 06:08:31;;;;;;;28.50;19.47;;;;;;;2.78;75.89;101470.50;1641287;86;21186;-83
2020/12/19 06:10:58;;;;;;;30.43;19.97;;;;;;;2.80;75.87;101469.42;1625157;87;21674;-87
2020/12/19 06:13:25;;;;;;;36.10;21.80;;;;;;;2.90;75.54;101481.45;1598867;88;21374;-85
2020/12/19 06:16:11;;;;;;;31.90;21.00;;;;;;;2.92;75.63;101484.36;1625668;87;21276;-82
2020/12/19 06:19:24;;;;;;;33.20;21.60;;;;;;;2.91;75.97;101480.51;1859087;73;23049;-95
2020/12/19 06:21:59;;;;;;;29.77;19.60;;;;;;;2.82;76.13;101489.06;1837542;77;21294;-92
2020/12/19 06:24:52;;;;;;;29.10;20.13;;;;;;;2.81;76.17;101496.62;1798942;77;21214;-93
2020/12/19 06:27:38;;;;;;;26.60;16.80;;;;;;;2.78;76.28;101492.39;1837566;77;21160;-90
2020/12/19 06:30:33;;;;;;;31.53;21.03;;;;;;;2.88;76.11;101494.75;1825900;76;21140;-93
2020/12/19 06:33:23;;;;;;;23.67;17.37;;;;;;;3.00;75.78;101502.72;1821618;75;21142;-88
2020/12/19 06:35:59;;;;;;;26.37;17.47;;;;;;;3.00;75.75;101513.26;1788331;78;21146;-91
2020/12/19 06:38:46;;;;;;;25.77;17.33;;;;;;;2.91;75.88;101517.38;1764775;80;21119;-90
2020/12/19 06:41:45;;;;;;;19.37;12.73;;;;;;;2.86;76.08;101515.09;1732063;81;21194;-93
2020/12/19 06:44:28;;;;;;;23.32;16.65;;;;;;;2.79;76.25;101516.47;1771554;80;21210;-90
2020/12/19 06:47:20;;;;;;;24.93;17.03;;;;;;;2.88;76.14;101508.37;1767290;80;21206;-93
2020/12/19 06:49:53;;;;;;;22.00;15.57;;;;;;;2.96;75.85;101517.04;1719547;81;21391;-92
2020/12/19 06:52:26;;;;;;;23.53;15.40;;;;;;;2.92;76.35;101519.91;1749265;79;21214;-93
2020/12/19 06:55:22;;;;;;;19.77;14.90;;;;;;;2.92;76.44;101519.91;1737465;80;21157;-94
2020/12/19 06:57:55;;;;;;;24.30;15.80;;;;;;;2.93;76.39;101518.11;1770564;79;21182;-88
2020/12/19 07:00:24;;;;;;;23.27;16.40;;;;;;;3.06;76.21;101518.08;1726021;81;21184;-90
2020/12/19 07:02:55;;;;;;;27.53;17.97;;;;;;;3.19;75.75;101518.88;1755681;80;21302;-90
2020/12/19 07:05:31;;;;;;;24.27;16.37;;;;;;;3.01;75.60;101476.73;1740269;80;22870;-89
2020/12/19 07:08:20;;;;;;;21.47;15.27;;;;;;;3.22;75.71;101516.02;1756992;80;21310;-90
2020/12/19 07:10:52;;;;;;;25.63;16.60;;;;;;;3.21;75.57;101513.02;1718826;82;21187;-90
2020/12/19 07:13:19;;;;;;;25.83;18.23;;;;;;;3.17;75.81;101514.19;1768808;80;21198;-93
2020/12/19 07:15:52;;;;;;;27.87;18.10;;;;;;;3.27;75.56;101511.23;1762067;80;21178;-92
2020/12/19 07:18:37;;;;;;;23.17;15.67;;;;;;;3.42;75.08;101511.91;1769261;80;21511;-90
2020/12/19 07:21:08;;;;;;;27.17;19.63;;;;;;;3.40;74.93;101510.35;1734231;81;21207;-89
2020/12/19 07:23:38;;;;;;;27.37;19.67;;;;;;;3.28;75.02;101503.71;1744648;81;21309;-89
2020/12/19 07:26:09;;;;;;;26.60;19.50;;;;;;;3.20;75.21;101508.71;1733244;81;21164;-90
2020/12/19 07:28:36;;;;;;;28.30;20.13;;;;;;;3.13;75.45;101512.73;1740019;81;21209;-90
2020/12/19 07:31:19;;;;;;;33.57;22.73;;;;;;;3.15;75.53;101515.27;1733310;81;21178;-93
2020/12/19 07:33:48;;;;;;;33.93;23.77;;;;;;;3.26;75.31;101513.52;1731198;81;21344;-92
2020/12/19 07:36:21;;;;;;;32.00;23.17;;;;;;;3.30;75.40;101507.07;1759611;80;21249;-90
2020/12/19 07:39:00;;;;;;;44.38;29.30;;;;;;;3.28;75.50;101515.56;1761698;80;21313;-90
2020/12/19 07:42:05;;;;;;;36.43;26.53;;;;;;;3.28;75.58;101505.52;1769761;79;23087;-92
2020/12/19 07:44:35;;;;;;;38.47;25.30;;;;;;;3.23;75.67;101512.42;1714108;82;21152;-91
2020/12/19 07:47:12;;;;;;;35.70;23.70;;;;;;;3.25;75.75;101518.41;1727232;81;21345;-90
2020/12/19 07:51:05;;;;;;;37.00;24.03;;;;;;;3.36;75.57;101513.69;1679082;81;23325;31
2020/12/19 07:57:36;;;;;;;35.43;25.80;;;;;;;3.56;75.06;101517.95;1667137;82;21278;-87
2020/12/19 08:00:22;;;;;;;38.27;25.93;;;;;;;2.65;75.15;101388.43;1694091;81;21121;-92
2020/12/19 08:02:56;;;;;;;38.07;26.00;;;;;;;3.56;75.09;101533.32;1714210;82;21166;-95
2020/12/19 08:05:28;;;;;;;36.50;22.47;;;;;;;3.56;75.12;101537.73;1697237;83;21119;-94
2020/12/19 08:08:28;;;;;;;38.50;25.60;;;;;;;3.60;74.88;101537.41;1641841;86;21184;-95
2020/12/19 08:11:49;;;;;;;41.67;27.20;;;;;;;3.73;74.57;101535.16;1603455;87;21156;-96
2020/12/19 08:15:16;;;;;;;34.17;24.87;;;;;;;3.68;74.57;101536.83;1582718;88;21156;-96
2020/12/19 08:22:40;;;;;;;47.63;31.53;;;;;;;3.58;74.88;101535.36;1571547;88;21256;-85
2020/12/19 10:39:59;;;;;;;39.23;26.42;;;;;;;4.48;73.22;101477.50;1449304;97;22578;-86
2020/12/19 10:42:29;;;;;;;34.33;25.63;;;;;;;4.52;73.10;101481.19;1456214;97;21692;-91
2020/12/19 10:44:58;;;;;;;36.87;27.03;;;;;;;4.54;73.11;101473.98;1445815;97;21334;-91
2020/12/19 10:47:52;;;;;;;36.47;27.27;;;;;;;4.71;72.69;101471.33;1803041;78;23051;-91
2020/12/19 10:50:20;;;;;;;35.27;25.87;;;;;;;4.79;72.40;101479.02;1768745;78;21121;-88
2020/12/19 10:52:47;;;;;;;33.23;25.77;;;;;;;4.86;72.18;101475.41;1782787;76;21180;-89
2020/12/19 10:55:58;;;;;;;35.67;27.23;;;;;;;4.91;72.18;101468.42;1801959;78;23120;-90
2020/12/19 10:58:27;;;;;;;32.80;23.37;;;;;;;4.86;72.03;101477.56;1772818;80;21390;-90
2020/12/19 11:00:58;;;;;;;40.53;29.97;;;;;;;4.13;72.04;101354.06;1774317;80;21104;-90
2020/12/19 11:03:28;;;;;;;39.30;28.63;;;;;;;4.81;72.17;101470.48;1734712;80;21119;-91
2020/12/19 11:05:57;;;;;;;40.87;30.07;;;;;;;4.82;72.26;101469.99;1706569;81;21340;-87
2020/12/19 11:08:34;;;;;;;42.57;29.30;;;;;;;4.90;71.99;101466.73;1649362;85;21416;-87
2020/12/19 11:11:03;;;;;;;32.67;25.93;;;;;;;4.99;71.67;101457.60;1641564;86;21282;-91
2020/12/19 11:13:30;;;;;;;43.07;32.10;;;;;;;4.98;71.46;101466.97;1639870;85;21238;-89
2020/12/19 11:16:00;;;;;;;39.00;29.53;;;;;;;4.82;71.79;101470.86;1646251;85;21227;-88
2020/12/19 11:18:34;;;;;;;38.40;29.43;;;;;;;4.72;72.30;101469.06;1646011;86;21243;-92
2020/12/19 11:21:03;;;;;;;40.37;31.43;;;;;;;4.65;72.69;101466.91;1657791;85;21350;-91
2020/12/19 11:23:35;;;;;;;38.60;28.27;;;;;;;4.63;72.95;101471.48;1646664;85;21353;-85
2020/12/19 11:26:02;;;;;;;39.63;28.57;;;;;;;4.65;72.95;101474.84;1656650;85;21360;-87
2020/12/19 11:28:31;;;;;;;38.97;27.33;;;;;;;4.76;72.69;101479.73;1652346;85;21186;-93
2020/12/19 11:30:58;;;;;;;32.83;25.43;;;;;;;4.94;72.37;101478.76;1623287;86;21868;-92
2020/12/19 11:33:25;;;;;;;33.67;23.63;;;;;;;5.00;71.99;101476.93;1649688;85;21672;-89
2020/12/19 11:35:58;;;;;;;40.23;25.53;;;;;;;4.97;71.93;101482.45;1649666;85;21292;-89
2020/12/19 11:38:26;;;;;;;32.17;24.90;;;;;;;3.76;71.84;101292.33;1629809;86;21295;-90
2020/12/19 11:40:55;;;;;;;33.30;24.80;;;;;;;4.83;72.04;101483.08;1656842;85;21246;-88
2020/12/19 11:43:25;;;;;;;31.13;23.63;;;;;;;4.81;72.34;101478.89;1638189;85;21275;-88
2020/12/19 11:45:55;;;;;;;34.40;25.77;;;;;;;4.77;72.20;101487.55;1669336;83;21696;-92
2020/12/19 11:48:22;;;;;;;33.00;25.10;;;;;;;4.83;72.04;101482.25;1676617;83;21257;-85
2020/12/19 11:50:49;;;;;;;29.90;24.03;;;;;;;4.95;71.74;101476.45;1657835;84;21192;-88
2020/12/19 11:53:24;;;;;;;29.30;22.87;;;;;;;4.97;71.57;101476.70;1652554;84;21652;-91
2020/12/19 11:56:26;;;;;;;;;;;;;;;;;;;;;
2020/12/19 11:59:07;;;;;;;26.23;21.17;;;;;;;4.85;71.64;101473.23;1618361;86;21316;-90
2020/12/19 12:01:51;;;;;;;32.90;21.27;;;;;;;4.83;71.88;101474.33;1764416;79;23076;-90
2020/12/19 12:04:37;;;;;;;29.90;22.53;;;;;;;4.72;71.84;101479.14;1760777;79;21670;-94
2020/12/19 12:07:15;;;;;;;25.60;20.80;;;;;;;4.76;71.72;101479.24;1661828;83;21144;-89
2020/12/19 12:09:44;;;;;;;31.80;23.57;;;;;;;4.88;71.50;101476.12;1629039;87;21236;-91
2020/12/19 12:12:25;;;;;;;32.83;24.90;;;;;;;4.90;71.56;101472.88;1656496;85;21230;-87
2020/12/19 12:14:57;;;;;;;31.80;21.93;;;;;;;4.86;71.70;101473.60;1657386;85;21211;-88
2020/12/19 12:17:34;;;;;;;27.47;19.43;;;;;;;4.61;71.78;101426.34;1813684;77;22314;-88
2020/12/19 12:20:02;;;;;;;28.33;22.90;;;;;;;4.82;71.80;101469.99;1793259;78;21131;-88
2020/12/19 12:22:30;;;;;;;32.70;24.27;;;;;;;4.78;71.74;101478.64;1799966;78;21153;-87
2020/12/19 12:24:56;;;;;;;33.00;23.40;;;;;;;4.73;71.92;101482.61;1793958;78;21193;-89
2020/12/19 12:27:24;;;;;;;34.17;24.53;;;;;;;4.76;71.98;101475.77;1775603;80;22157;-88
2020/12/19 12:29:51;;;;;;;32.87;24.57;;;;;;;4.86;71.61;101476.25;1780004;78;21198;-88
2020/12/19 12:32:25;;;;;;;33.57;25.63;;;;;;;4.88;71.63;101484.88;1798181;78;21137;-92
2020/12/19 12:35:32;;;;;;;34.83;25.60;;;;;;;4.83;71.85;101476.97;1785418;77;21115;-89
2020/12/19 12:38:05;;;;;;;33.07;24.70;;;;;;;4.79;72.02;101479.50;1655343;85;21228;-88
2020/12/19 12:40:34;;;;;;;33.20;23.50;;;;;;;4.74;72.06;101482.49;1684503;83;21342;-85
2020/12/19 12:43:07;;;;;;;28.17;21.47;;;;;;;4.71;72.23;101483.22;1695388;84;21534;-87
2020/12/19 12:45:46;;;;;;;28.13;20.50;;;;;;;4.67;72.29;101489.22;1692182;83;21187;-89
2020/12/19 12:48:14;;;;;;;34.50;25.10;;;;;;;4.75;72.15;101484.67;1695474;83;21209;-88
2020/12/19 12:53:27;;;;;;;35.37;26.23;;;;;;;4.87;71.94;101479.23;1896279;74;22865;-91
2020/12/19 12:55:54;;;;;;;34.13;24.93;;;;;;;4.81;72.07;101481.54;1856396;75;22725;-87
2020/12/19 12:58:23;;;;;;;34.73;23.93;;;;;;;4.80;72.22;101487.77;1865659;75;21159;-92
2020/12/19 13:01:03;;;;;;;35.00;26.33;;;;;;;4.78;72.23;101478.64;1806048;77;23697;-92
2020/12/19 13:03:31;;;;;;;38.33;25.17;;;;;;;4.69;72.41;101488.64;1816643;77;21188;-87
2020/12/19 13:06:04;;;;;;;35.20;23.77;;;;;;;4.65;72.59;101484.55;1736003;79;21172;-88
2020/12/19 13:08:32;;;;;;;35.17;25.33;;;;;;;4.69;72.47;101487.33;1725096;83;21214;-91
2020/12/19 13:10:59;;;;;;;34.37;25.30;;;;;;;4.80;72.27;101490.41;1724894;82;21183;-88
2020/12/19 13:13:31;;;;;;;35.13;25.00;;;;;;;4.82;72.27;101493.77;1727415;82;21752;-87
2020/12/19 13:16:01;;;;;;;36.40;24.67;;;;;;;4.75;72.38;101499.20;1714985;82;21171;-89
2020/12/19 13:18:51;;;;;;;45.40;30.20;;;;;;;4.65;72.57;101500.39;1720553;82;21183;-87
2020/12/19 13:21:50;;;;;;;36.87;25.10;;;;;;;4.61;72.89;101489.71;1798567;77;23696;-92
2020/12/19 13:24:19;;;;;;;39.17;26.33;;;;;;;4.55;73.03;101502.09;1750084;80;21337;-90
2020/12/19 13:26:47;;;;;;;40.23;27.70;;;;;;;4.59;72.93;101496.43;1741216;80;21180;-87
2020/12/19 13:29:17;;;;;;;40.00;28.87;;;;;;;4.72;72.80;101497.63;1702854;82;21195;-91
2020/12/19 13:31:47;;;;;;;39.90;27.33;;;;;;;4.76;72.67;101499.05;1723100;81;21329;-87
2020/12/19 13:34:16;;;;;;;33.67;25.20;;;;;;;4.71;72.74;101492.46;1721795;81;21296;-90
2020/12/19 13:39:57;;;;;;;39.93;29.30;;;;;;;4.61;73.14;101489.22;1878126;75;27181;-88
2020/12/19 13:42:25;;;;;;;37.37;25.33;;;;;;;4.56;73.30;101493.19;1843307;77;21278;-88
2020/12/19 13:44:52;;;;;;;41.70;26.77;;;;;;;4.60;73.20;101492.02;1766101;76;21210;-86
2020/12/19 13:47:20;;;;;;;38.87;27.00;;;;;;;4.73;73.03;101492.72;1770054;78;21293;-86
2020/12/19 13:53:15;;;;;;;47.90;31.53;;;;;;;4.70;73.12;101490.30;1802670;78;23084;-89
2020/12/19 13:55:41;;;;;;;40.90;30.27;;;;;;;4.59;73.21;101498.23;1762372;79;21196;-88
2020/12/19 13:58:09;;;;;;;38.80;26.13;;;;;;;4.56;73.39;101494.51;1773655;80;21187;-85
2020/12/19 14:00:37;;;;;;;43.50;28.70;;;;;;;4.55;73.45;101495.00;1772078;79;21389;-87
2020/12/19 14:03:04;;;;;;;42.90;29.37;;;;;;;4.56;73.28;101489.23;1775672;80;21212;-87
2020/12/19 14:05:34;;;;;;;44.67;29.63;;;;;;;4.65;73.13;101497.75;1739745;79;21215;-86
2020/12/19 14:08:21;;;;;;;47.00;32.23;;;;;;;4.66;73.16;101498.95;1732410;81;21514;-89
2020/12/19 14:10:49;;;;;;;45.83;32.13;;;;;;;4.56;73.25;101499.79;1740342;81;21337;-88
2020/12/19 14:13:16;;;;;;;48.50;32.97;;;;;;;4.53;73.45;101506.16;1731493;81;21353;-88
2020/12/19 14:15:43;;;;;;;43.97;30.83;;;;;;;4.51;73.54;101505.45;1718083;81;21170;-86
2020/12/19 14:18:10;;;;;;;44.33;28.90;;;;;;;4.51;73.60;101512.53;1703927;82;21203;-88
2020/12/19 14:20:40;;;;;;;41.20;30.00;;;;;;;4.56;73.49;101503.75;1728301;81;21171;-86
2020/12/19 14:23:07;;;;;;;45.67;30.93;;;;;;;4.69;73.10;101513.73;1727933;81;21175;-86
2020/12/19 14:25:34;;;;;;;40.83;28.53;;;;;;;4.73;73.01;101509.02;1732342;81;21850;-86